Time;durP1;ratioP1;P1;durP2;ratioP2;P2;SDS_P1;SDS_P2;PMS_P1;PMS_P2;Temp;Humidity;BMP_temperature;BMP_pressure;BME280_temperature;BME280_humidity;BME280_pressure;Samples;Min_cycle;Max_cycle;Signal;HPM_P1;HPM_P2
2022/11/26 00:00:52;;;;;;;18.65;9.27;;;;;;;9.30;58.62;102469.56;4903319;29;20140;-68
2022/11/26 00:03:18;;;;;;;20.98;9.95;;;;;;;9.31;58.72;102476.66;4939036;29;20048;-67
2022/11/26 00:05:48;;;;;;;18.98;9.90;;;;;;;9.31;58.59;102472.19;4928362;29;20091;-67
2022/11/26 00:08:19;;;;;;;17.17;9.98;;;;;;;9.33;58.76;102474.81;4920119;29;20595;-67
2022/11/26 00:10:49;;;;;;;24.80;10.48;;;;;;;9.34;58.82;102474.72;4924231;29;20040;-67
2022/11/26 00:13:20;;;;;;;21.23;10.20;;;;;;;9.37;58.79;102477.28;4902656;29;20112;-67
2022/11/26 00:15:47;;;;;;;18.67;9.40;;;;;;;9.40;58.65;102474.50;4887404;29;20052;-67
2022/11/26 00:18:15;;;;;;;21.83;10.20;;;;;;;9.39;58.75;102490.63;4919148;29;20040;-67
2022/11/26 00:20:44;;;;;;;18.38;10.07;;;;;;;9.35;58.52;102487.22;4927053;29;20040;-67
2022/11/26 00:23:21;;;;;;;19.58;9.38;;;;;;;9.33;58.61;102488.22;4932037;29;20459;-68
2022/11/26 00:25:51;;;;;;;18.25;10.15;;;;;;;9.33;58.93;102496.25;4930792;29;20111;-67
2022/11/26 00:28:30;;;;;;;17.88;10.48;;;;;;;9.32;58.92;102500.75;4921660;29;20068;-67
2022/11/26 00:31:00;;;;;;;16.52;9.35;;;;;;;9.32;58.82;102502.53;4910542;29;20032;-68
2022/11/26 00:33:28;;;;;;;16.30;9.30;;;;;;;9.32;58.73;102494.50;4937426;29;20083;-67
2022/11/26 00:36:00;;;;;;;15.80;9.00;;;;;;;9.31;58.74;102496.31;4904088;29;20058;-68
2022/11/26 00:38:28;;;;;;;23.27;10.25;;;;;;;9.28;58.72;102499.09;4920020;29;20044;-67
2022/11/26 00:40:55;;;;;;;16.77;9.32;;;;;;;9.24;58.82;102501.03;4913517;29;20048;-67
2022/11/26 00:43:22;;;;;;;18.77;9.27;;;;;;;9.22;58.76;102494.00;4900517;29;20555;-67
2022/11/26 00:45:49;;;;;;;19.63;9.68;;;;;;;9.22;58.91;102491.31;4905818;29;20043;-68
2022/11/26 00:48:16;;;;;;;16.52;9.52;;;;;;;9.22;58.86;102504.72;4920440;29;20040;-69
2022/11/26 00:50:47;;;;;;;16.27;9.30;;;;;;;9.21;58.88;102497.59;4933988;29;20051;-68
2022/11/26 00:53:16;;;;;;;17.15;10.27;;;;;;;9.21;59.00;102501.16;4921335;29;20051;-67
2022/11/26 00:55:46;;;;;;;16.25;9.15;;;;;;;9.22;58.76;102502.91;4928752;29;20056;-68
2022/11/26 00:58:27;;;;;;;19.60;9.60;;;;;;;9.19;58.85;102499.47;4942128;29;20051;-67
2022/11/26 01:00:57;;;;;;;15.65;10.30;;;;;;;9.18;58.73;102501.28;4933048;29;20065;-68
2022/11/26 01:03:24;;;;;;;17.40;9.07;;;;;;;9.16;58.83;102502.28;4889910;29;20095;-68
2022/11/26 01:05:54;;;;;;;16.27;9.40;;;;;;;9.12;58.78;102500.63;4901869;29;20036;-68
2022/11/26 01:08:33;;;;;;;17.27;9.38;;;;;;;9.07;58.80;102503.50;4918914;29;20100;-67
2022/11/26 01:11:01;;;;;;;17.40;9.50;;;;;;;9.02;58.66;102501.94;4903951;29;20071;-68
2022/11/26 01:13:29;;;;;;;17.10;9.32;;;;;;;8.98;58.69;102511.03;4918580;29;20067;-67
2022/11/26 01:15:58;;;;;;;15.25;9.13;;;;;;;8.93;58.73;102515.69;4914570;29;20040;-68
2022/11/26 01:18:25;;;;;;;14.02;8.82;;;;;;;8.87;58.77;102508.72;4914530;29;20071;-68
2022/11/26 01:20:52;;;;;;;15.45;9.85;;;;;;;8.81;58.62;102517.84;4925930;29;20132;-68
2022/11/26 01:23:19;;;;;;;14.90;9.70;;;;;;;8.78;58.72;102517.09;4917182;29;20130;-68
2022/11/26 01:25:46;;;;;;;13.68;9.15;;;;;;;8.73;58.90;102517.25;4918133;29;20040;-67
2022/11/26 01:28:16;;;;;;;18.35;8.93;;;;;;;8.71;58.78;102521.81;4913098;29;20415;-68
2022/11/26 01:30:43;;;;;;;16.60;9.57;;;;;;;8.68;58.86;102515.69;4916189;29;20402;-71
2022/11/26 01:33:10;;;;;;;22.23;10.80;;;;;;;8.64;58.97;102525.63;4922602;29;20099;-68
2022/11/26 01:35:36;;;;;;;30.55;11.82;;;;;;;8.58;58.89;102524.06;4900049;29;20048;-68
2022/11/26 01:38:04;;;;;;;25.48;11.02;;;;;;;8.49;58.75;102526.19;4923745;29;20042;-68
2022/11/26 01:40:48;;;;;;;16.92;10.25;;;;;;;8.38;59.16;102523.88;4936218;29;20050;-68
2022/11/26 01:43:26;;;;;;;46.33;12.53;;;;;;;8.32;59.17;102512.50;4893426;29;20040;-68
2022/11/26 01:45:55;;;;;;;19.40;10.98;;;;;;;8.28;59.26;102519.75;4920398;29;20135;-68
2022/11/26 01:48:24;;;;;;;23.23;10.98;;;;;;;8.27;59.32;102516.19;4893112;29;20111;-67
2022/11/26 01:50:56;;;;;;;21.13;10.88;;;;;;;8.29;59.36;102516.16;4921827;29;20036;-68
2022/11/26 01:53:31;;;;;;;22.30;12.38;;;;;;;8.32;59.42;102515.16;4931723;29;20453;-68
2022/11/26 01:56:02;;;;;;;19.83;12.20;;;;;;;8.31;59.57;102519.66;4927816;29;20134;-68
2022/11/26 01:58:39;;;;;;;12.43;9.63;;;;;;;8.34;59.54;102513.34;4931512;29;20379;-68
2022/11/26 02:01:06;;;;;;;16.50;10.55;;;;;;;8.37;59.46;102522.13;4919196;29;20044;-68
2022/11/26 02:03:41;;;;;;;16.02;10.07;;;;;;;8.40;59.63;102521.16;4936827;29;20119;-68
2022/11/26 02:06:15;;;;;;;15.68;10.15;;;;;;;8.43;59.58;102518.38;4928977;29;20044;-68
2022/11/26 02:08:42;;;;;;;18.45;9.55;;;;;;;8.45;59.55;102522.75;4917832;29;20040;-68
2022/11/26 02:11:16;;;;;;;18.38;8.80;;;;;;;8.45;59.53;102517.38;4917272;29;20044;-68
2022/11/26 02:13:45;;;;;;;12.90;9.07;;;;;;;8.47;59.52;102525.38;4917238;29;20048;-69
2022/11/26 02:16:30;;;;;;;22.90;10.48;;;;;;;8.44;59.76;102523.66;4916885;29;20123;-68
2022/11/26 02:19:30;;;;;;;19.17;9.93;;;;;;;8.42;59.43;102528.22;4934295;29;20570;-69
2022/11/26 02:22:18;;;;;;;19.15;10.18;;;;;;;8.38;59.43;102539.06;4922062;29;20912;-68
2022/11/26 02:25:10;;;;;;;19.65;10.10;;;;;;;8.32;59.39;102540.13;4900173;29;20400;-68
2022/11/26 02:27:52;;;;;;;21.20;10.80;;;;;;;8.26;59.12;102545.69;4886953;29;20064;-69
2022/11/26 02:30:19;;;;;;;30.65;10.52;;;;;;;8.20;59.31;102540.56;4912383;29;20055;-68
2022/11/26 02:32:56;;;;;;;17.50;9.75;;;;;;;8.15;59.21;102547.84;4929518;29;20115;-69
2022/11/26 02:36:02;;;;;;;23.00;9.05;;;;;;;8.08;59.31;102544.50;4911677;29;20047;-68
2022/11/26 02:38:31;;;;;;;18.42;9.13;;;;;;;8.05;59.25;102551.75;4914963;29;20047;-69
2022/11/26 02:40:59;;;;;;;22.60;10.13;;;;;;;8.02;59.35;102549.16;4918174;29;20047;-69
2022/11/26 02:43:26;;;;;;;18.90;10.40;;;;;;;8.00;59.34;102553.69;4925309;29;20036;-68
2022/11/26 02:45:57;;;;;;;14.23;9.85;;;;;;;7.98;59.50;102557.31;4916923;29;20127;-68
2022/11/26 02:48:30;;;;;;;15.65;10.82;;;;;;;7.97;59.60;102543.97;4916717;29;20088;-67
2022/11/26 02:51:00;;;;;;;19.05;10.32;;;;;;;7.96;59.43;102553.81;4900650;29;20048;-68
2022/11/26 02:53:31;;;;;;;19.05;10.20;;;;;;;7.96;59.38;102555.59;4915507;29;20064;-68
2022/11/26 02:56:14;;;;;;;16.92;10.07;;;;;;;7.94;59.36;102557.44;4917357;29;20047;-68
2022/11/26 02:58:41;;;;;;;15.80;9.82;;;;;;;7.94;59.42;102561.00;4916455;29;20130;-68
2022/11/26 03:01:19;;;;;;;15.88;10.50;;;;;;;7.93;59.39;102563.72;4936174;29;20094;-68
2022/11/26 03:03:51;;;;;;;18.10;10.68;;;;;;;7.94;59.55;102566.34;4917747;29;20036;-68
2022/11/26 03:06:19;;;;;;;18.95;11.32;;;;;;;7.96;59.51;102569.84;4935078;29;20513;-68
2022/11/26 03:08:46;;;;;;;15.10;11.05;;;;;;;7.96;59.51;102561.81;4921551;29;20099;-68
2022/11/26 03:11:13;;;;;;;18.83;11.63;;;;;;;7.99;59.78;102576.91;4896654;29;20075;-69
2022/11/26 03:13:39;;;;;;;16.73;11.32;;;;;;;8.01;59.64;102577.72;4902511;29;20092;-68
2022/11/26 03:16:06;;;;;;;17.95;11.13;;;;;;;8.03;59.76;102578.56;4916946;29;20075;-69
2022/11/26 03:18:33;;;;;;;37.58;12.75;;;;;;;8.05;59.77;102582.06;4917152;29;20044;-69
2022/11/26 03:20:59;;;;;;;72.43;14.30;;;;;;;8.05;59.65;102575.81;4926749;29;20044;-69
2022/11/26 03:23:26;;;;;;;20.92;10.18;;;;;;;8.02;59.76;102578.59;4931141;29;20645;-68
2022/11/26 03:25:53;;;;;;;16.58;10.73;;;;;;;8.00;59.54;102573.31;4916458;29;20048;-68
2022/11/26 03:28:19;;;;;;;24.00;12.20;;;;;;;8.02;59.65;102583.94;4929417;29;20117;-68
2022/11/26 03:30:48;;;;;;;19.48;10.88;;;;;;;8.03;59.67;102583.91;4935218;29;20031;-68
2022/11/26 03:33:15;;;;;;;20.88;11.30;;;;;;;8.05;59.67;102591.88;4937322;29;20052;-67
2022/11/26 03:35:42;;;;;;;18.20;11.85;;;;;;;8.07;59.79;102588.22;4934932;29;20099;-68
2022/11/26 03:38:08;;;;;;;18.77;10.95;;;;;;;8.08;59.78;102599.81;4895225;29;20119;-67
2022/11/26 03:40:35;;;;;;;32.15;12.02;;;;;;;8.06;59.83;102597.19;4938824;29;20047;-67
2022/11/26 03:43:02;;;;;;;19.63;10.75;;;;;;;8.05;59.77;102605.25;4939433;29;20039;-67
2022/11/26 03:45:31;;;;;;;25.40;11.35;;;;;;;8.04;59.66;102600.84;4919639;29;20051;-67
2022/11/26 03:47:58;;;;;;;19.92;10.93;;;;;;;8.01;59.66;102604.47;4919412;29;20407;-68
2022/11/26 03:50:25;;;;;;;54.72;13.20;;;;;;;7.98;59.72;102604.59;4903046;29;20048;-68
2022/11/26 03:52:52;;;;;;;21.95;10.93;;;;;;;7.95;59.62;102607.34;4937925;29;20040;-67
2022/11/26 03:55:18;;;;;;;24.42;12.30;;;;;;;7.91;59.76;102601.22;4921321;29;20040;-68
2022/11/26 03:57:45;;;;;;;24.73;11.25;;;;;;;7.90;59.58;102603.94;4920086;29;20095;-67
2022/11/26 04:00:13;;;;;;;18.10;10.70;;;;;;;7.88;59.80;102606.69;4919447;29;20052;-68
2022/11/26 04:02:39;;;;;;;25.67;12.15;;;;;;;7.87;59.94;102609.41;4914120;29;20040;-67
2022/11/26 04:05:06;;;;;;;26.27;11.85;;;;;;;7.86;59.69;102610.31;4925313;29;20044;-67
2022/11/26 04:07:33;;;;;;;38.35;13.05;;;;;;;7.87;59.76;102620.97;4937243;29;20036;-68
2022/11/26 04:09:59;;;;;;;21.23;10.93;;;;;;;7.87;59.85;102614.75;4902408;29;20048;-68
2022/11/26 04:12:26;;;;;;;25.27;12.18;;;;;;;7.85;59.63;102613.94;4921234;29;20044;-68
2022/11/26 04:14:52;;;;;;;22.27;11.30;;;;;;;7.85;59.99;102608.56;4925111;29;20059;-68
2022/11/26 04:17:19;;;;;;;23.20;11.85;;;;;;;7.86;59.87;102619.22;4902786;29;20052;-68
2022/11/26 04:19:46;;;;;;;26.15;12.52;;;;;;;7.87;59.82;102620.09;4920079;29;20044;-67
2022/11/26 04:22:12;;;;;;;24.25;12.27;;;;;;;7.88;60.06;102622.72;4914102;29;20044;-68
2022/11/26 04:24:39;;;;;;;26.27;12.35;;;;;;;7.89;59.99;102618.25;4936536;29;20043;-68
2022/11/26 04:27:06;;;;;;;33.95;12.90;;;;;;;7.89;59.92;102618.25;4937753;29;20082;-68
2022/11/26 04:29:33;;;;;;;27.33;12.63;;;;;;;7.88;59.98;102616.50;4917388;29;20078;-68
2022/11/26 04:31:59;;;;;;;29.98;13.85;;;;;;;7.88;59.99;102624.53;4901916;29;20091;-68
2022/11/26 04:34:26;;;;;;;28.75;12.40;;;;;;;7.88;59.99;102628.06;4910083;29;20447;-67
2022/11/26 04:36:52;;;;;;;23.55;12.00;;;;;;;7.90;60.10;102636.06;4936840;29;20095;-68
2022/11/26 04:39:19;;;;;;;18.60;11.43;;;;;;;7.90;59.99;102644.09;4936637;29;20040;-67
2022/11/26 04:41:46;;;;;;;41.22;12.38;;;;;;;7.90;60.03;102636.94;4919919;29;20048;-68
2022/11/26 04:44:12;;;;;;;55.55;13.23;;;;;;;7.87;60.00;102650.41;4929810;29;20044;-68
2022/11/26 04:46:39;;;;;;;35.78;14.40;;;;;;;7.84;59.89;102649.63;4919279;29;20040;-68
2022/11/26 04:49:05;;;;;;;22.42;11.57;;;;;;;7.80;60.04;102662.22;4918288;29;20040;-67
2022/11/26 04:51:32;;;;;;;32.78;12.38;;;;;;;7.78;59.81;102652.47;4910591;29;20096;-68
2022/11/26 04:53:59;;;;;;;56.85;14.35;;;;;;;7.75;60.06;102649.91;4922359;29;20040;-68
2022/11/26 04:56:29;;;;;;;35.15;14.18;;;;;;;7.72;60.01;102642.84;4921593;29;20044;-67
2022/11/26 04:58:55;;;;;;;25.58;12.65;;;;;;;7.71;59.99;102642.91;4936245;29;20050;-68
2022/11/26 05:01:22;;;;;;;24.20;12.85;;;;;;;7.70;60.30;102643.81;4937146;29;20104;-68
2022/11/26 05:03:49;;;;;;;29.20;12.80;;;;;;;7.69;60.30;102644.75;4935420;29;20138;-68
2022/11/26 05:06:16;;;;;;;25.73;13.20;;;;;;;7.69;60.25;102639.41;4937915;29;20495;-67
2022/11/26 05:08:42;;;;;;;28.35;12.93;;;;;;;7.70;60.30;102650.03;4928423;29;20043;-67
2022/11/26 05:11:09;;;;;;;28.13;13.00;;;;;;;7.70;60.31;102654.53;4937784;29;20043;-67
2022/11/26 05:13:35;;;;;;;23.90;12.52;;;;;;;7.72;60.27;102652.66;4928788;29;20041;-68
2022/11/26 05:16:02;;;;;;;23.60;12.70;;;;;;;7.73;60.46;102651.75;4924566;29;20035;-68
2022/11/26 05:18:29;;;;;;;25.50;14.13;;;;;;;7.74;60.36;102656.19;4936625;29;20099;-69
2022/11/26 05:20:56;;;;;;;30.08;12.98;;;;;;;7.73;60.29;102665.13;4934712;29;20044;-67
2022/11/26 05:23:22;;;;;;;24.95;13.35;;;;;;;7.70;60.46;102663.41;4924076;29;20043;-68
2022/11/26 05:25:50;;;;;;;30.80;15.18;;;;;;;7.67;60.34;102660.84;4928729;29;20033;-68
2022/11/26 05:28:16;;;;;;;25.60;13.75;;;;;;;7.64;60.36;102664.47;4917924;29;20048;-67
2022/11/26 05:30:43;;;;;;;28.30;14.70;;;;;;;7.64;60.36;102658.25;4933269;29;20035;-68
2022/11/26 05:33:09;;;;;;;37.03;16.98;;;;;;;7.61;60.47;102653.88;4919332;29;20486;-68
2022/11/26 05:35:36;;;;;;;36.90;15.85;;;;;;;7.59;60.45;102662.88;4935103;29;20103;-68
2022/11/26 05:38:03;;;;;;;28.55;15.60;;;;;;;7.58;60.36;102667.34;4937258;29;20123;-68
2022/11/26 05:40:30;;;;;;;33.50;15.13;;;;;;;7.59;60.49;102671.75;4922443;29;20392;-68
2022/11/26 05:42:56;;;;;;;40.70;17.23;;;;;;;7.59;60.52;102670.88;4934957;29;20075;-68
2022/11/26 05:45:23;;;;;;;28.50;15.02;;;;;;;7.57;60.50;102670.94;4936038;29;20135;-66
2022/11/26 05:47:49;;;;;;;30.52;15.70;;;;;;;7.56;60.50;102677.19;4930407;29;20047;-67
2022/11/26 05:50:16;;;;;;;36.45;16.30;;;;;;;7.55;60.31;102671.91;4917474;29;20103;-67
2022/11/26 05:52:43;;;;;;;34.25;17.08;;;;;;;7.54;60.47;102671.03;4935119;29;20043;-66
2022/11/26 05:55:10;;;;;;;29.42;16.40;;;;;;;7.56;60.54;102666.50;4917486;29;20052;-68
2022/11/26 05:57:37;;;;;;;37.42;16.90;;;;;;;7.57;60.35;102676.28;4899186;29;20411;-66
2022/11/26 06:00:04;;;;;;;28.75;16.08;;;;;;;7.59;60.50;102673.56;4899163;29;20100;-67
2022/11/26 06:02:37;;;;;;;29.83;15.60;;;;;;;7.56;60.53;102677.19;4932569;29;20514;-66
2022/11/26 06:05:04;;;;;;;26.73;15.15;;;;;;;7.53;60.38;102685.31;4932017;29;20103;-66
2022/11/26 06:07:31;;;;;;;27.25;15.60;;;;;;;7.51;60.38;102681.81;4936917;29;20048;-67
2022/11/26 06:09:58;;;;;;;25.00;15.63;;;;;;;7.50;60.49;102685.41;4937036;29;20448;-68
2022/11/26 06:12:24;;;;;;;29.98;15.82;;;;;;;7.51;60.43;102691.63;4920487;29;20040;-67
2022/11/26 06:14:51;;;;;;;33.45;16.60;;;;;;;7.51;60.50;102684.47;4925830;29;20134;-68
2022/11/26 06:17:18;;;;;;;27.00;15.68;;;;;;;7.52;60.40;102694.25;4935478;29;20047;-67
2022/11/26 06:19:44;;;;;;;29.00;16.42;;;;;;;7.52;60.31;102699.59;4919541;29;20048;-68
2022/11/26 06:22:11;;;;;;;26.02;15.35;;;;;;;7.51;60.44;102713.00;4917365;29;20044;-67
2022/11/26 06:24:38;;;;;;;25.15;15.50;;;;;;;7.47;60.30;102706.00;4935313;29;20040;-68
2022/11/26 06:27:04;;;;;;;28.52;14.93;;;;;;;7.46;60.33;102704.25;4923237;29;20051;-67
2022/11/26 06:29:31;;;;;;;24.58;14.90;;;;;;;7.44;60.46;102706.97;4903594;29;20046;-67
2022/11/26 06:31:58;;;;;;;22.08;14.07;;;;;;;7.43;60.34;102709.66;4917310;29;20051;-68
2022/11/26 06:34:24;;;;;;;28.23;15.07;;;;;;;7.43;60.34;102704.28;4913556;29;20048;-67
2022/11/26 06:36:51;;;;;;;29.00;13.95;;;;;;;7.42;60.29;102708.75;4898828;29;20040;-67
2022/11/26 06:39:18;;;;;;;25.75;14.50;;;;;;;7.41;60.41;102706.13;4913762;29;20102;-68
2022/11/26 06:41:44;;;;;;;30.13;15.00;;;;;;;7.39;60.44;102719.53;4914959;29;20415;-68
2022/11/26 06:44:11;;;;;;;29.50;15.88;;;;;;;7.38;60.34;102722.25;4910512;29;20047;-68
2022/11/26 06:46:37;;;;;;;30.83;14.82;;;;;;;7.38;60.41;102724.94;4926038;29;20054;-68
2022/11/26 06:49:04;;;;;;;26.90;15.13;;;;;;;7.38;60.59;102728.47;4919292;29;20475;-68
2022/11/26 06:51:32;;;;;;;30.13;14.57;;;;;;;7.40;60.61;102726.66;4916478;29;20040;-68
2022/11/26 06:53:58;;;;;;;30.08;14.63;;;;;;;7.41;60.56;102733.75;4917055;29;20076;-68
2022/11/26 06:56:25;;;;;;;28.95;14.40;;;;;;;7.44;60.63;102741.72;4919559;29;20070;-68
2022/11/26 06:58:55;;;;;;;26.08;13.55;;;;;;;7.44;60.71;102740.84;4935030;29;20047;-68
2022/11/26 07:01:25;;;;;;;35.05;14.68;;;;;;;7.43;60.68;102742.63;4935919;29;20039;-68
2022/11/26 07:03:52;;;;;;;27.00;14.07;;;;;;;7.41;60.60;102739.09;4931851;29;20036;-68
2022/11/26 07:06:22;;;;;;;27.63;15.30;;;;;;;7.37;60.73;102734.75;4905448;29;20492;-68
2022/11/26 07:08:50;;;;;;;25.00;14.25;;;;;;;7.37;60.71;102732.06;4907461;29;20063;-68
2022/11/26 07:11:19;;;;;;;26.77;15.02;;;;;;;7.39;60.87;102740.06;4930608;29;20117;-68
2022/11/26 07:13:45;;;;;;;24.20;14.32;;;;;;;7.43;60.72;102741.72;4929916;29;20036;-68
2022/11/26 07:16:12;;;;;;;35.03;15.23;;;;;;;7.44;60.98;102743.50;4916922;29;20104;-68
2022/11/26 07:18:39;;;;;;;27.75;14.50;;;;;;;7.45;60.78;102738.13;4922438;29;20048;-67
2022/11/26 07:21:09;;;;;;;33.20;16.10;;;;;;;7.48;60.92;102745.19;4919433;29;20036;-68
2022/11/26 07:23:36;;;;;;;25.00;14.95;;;;;;;7.48;60.91;102751.41;4935892;29;20055;-67
2022/11/26 07:26:05;;;;;;;31.38;15.10;;;;;;;7.48;60.97;102746.06;4935937;29;20466;-67
2022/11/26 07:28:33;;;;;;;30.40;14.65;;;;;;;7.50;61.02;102751.34;4922403;29;20103;-68
2022/11/26 07:31:01;;;;;;;24.48;13.52;;;;;;;7.52;61.10;102755.75;4915656;29;20040;-67
2022/11/26 07:33:28;;;;;;;24.42;12.90;;;;;;;7.55;61.14;102755.66;4916856;29;20040;-68
2022/11/26 07:35:59;;;;;;;34.22;14.07;;;;;;;7.59;61.27;102767.13;4917093;29;20046;-68
2022/11/26 07:38:27;;;;;;;30.58;13.45;;;;;;;7.62;61.29;102759.03;4914876;29;20040;-68
2022/11/26 07:41:00;;;;;;;23.75;12.60;;;;;;;7.64;61.15;102767.88;4916935;29;20092;-67
2022/11/26 07:43:27;;;;;;;23.23;13.60;;;;;;;7.67;61.08;102764.25;4916867;29;20040;-68
2022/11/26 07:45:53;;;;;;;25.63;12.95;;;;;;;7.70;61.19;102764.16;4921372;29;20097;-69
2022/11/26 07:48:20;;;;;;;27.42;13.07;;;;;;;7.70;61.19;102774.84;4912423;29;20491;-69
2022/11/26 07:50:46;;;;;;;23.65;11.93;;;;;;;7.72;61.28;102773.91;4899540;29;20547;-69
2022/11/26 07:53:13;;;;;;;28.05;13.55;;;;;;;7.74;61.35;102771.19;4916489;29;20040;-69
2022/11/26 07:55:40;;;;;;;20.63;12.55;;;;;;;7.76;61.19;102780.03;4915845;29;20483;-68
2022/11/26 07:58:06;;;;;;;27.25;13.15;;;;;;;7.79;61.42;102775.47;4916576;29;20146;-69
2022/11/26 08:00:33;;;;;;;25.60;11.65;;;;;;;7.82;61.60;102778.06;4915723;29;20052;-68
2022/11/26 08:02:59;;;;;;;22.90;12.43;;;;;;;7.85;61.59;102777.09;4915395;29;20048;-69
2022/11/26 08:05:26;;;;;;;21.80;11.82;;;;;;;7.89;61.71;102776.09;4935560;29;20044;-69
2022/11/26 08:07:53;;;;;;;26.63;12.88;;;;;;;7.94;61.89;102764.31;4935593;29;20044;-68
2022/11/26 08:10:19;;;;;;;23.30;12.57;;;;;;;8.00;61.87;102768.63;4935569;29;20048;-68
2022/11/26 08:12:46;;;;;;;21.20;12.40;;;;;;;8.05;61.84;102761.31;4936658;29;20032;-68
2022/11/26 08:15:12;;;;;;;30.17;12.50;;;;;;;8.10;61.74;102763.88;4921249;29;20040;-68
2022/11/26 08:17:39;;;;;;;28.90;12.82;;;;;;;8.16;61.95;102755.66;4899903;29;20048;-68
2022/11/26 08:20:06;;;;;;;29.35;12.40;;;;;;;8.20;61.78;102758.22;4900817;29;20104;-68
2022/11/26 08:22:33;;;;;;;26.58;11.38;;;;;;;8.26;61.85;102766.06;4900475;29;20041;-68
2022/11/26 08:24:59;;;;;;;28.42;12.68;;;;;;;8.33;62.14;102777.50;4886889;29;20120;-68
2022/11/26 08:27:26;;;;;;;28.65;11.85;;;;;;;8.39;62.08;102771.06;4919633;29;20044;-68
2022/11/26 08:29:52;;;;;;;31.15;12.88;;;;;;;8.44;62.13;102772.66;4924348;29;20046;-64
2022/11/26 08:32:19;;;;;;;29.20;12.45;;;;;;;8.51;62.23;102779.59;4935964;29;20038;-65
2022/11/26 08:34:45;;;;;;;30.10;12.18;;;;;;;8.58;62.43;102789.19;4887266;29;20044;-64
2022/11/26 08:37:12;;;;;;;30.23;12.80;;;;;;;8.69;62.54;102785.28;4915649;29;20115;-64
2022/11/26 08:39:38;;;;;;;33.70;12.73;;;;;;;8.79;62.67;102782.25;4918814;29;20043;-64
2022/11/26 08:42:05;;;;;;;29.85;12.75;;;;;;;8.91;62.87;102778.28;4919137;29;20047;-65
2022/11/26 08:44:31;;;;;;;27.35;12.50;;;;;;;9.03;63.09;102777.03;4917435;29;20144;-64
2022/11/26 08:46:58;;;;;;;33.55;12.93;;;;;;;9.15;63.16;102780.16;4919038;29;20483;-65
2022/11/26 08:49:25;;;;;;;32.03;14.10;;;;;;;9.26;63.33;102778.91;4919067;29;20103;-64
2022/11/26 08:51:54;;;;;;;27.15;12.63;;;;;;;9.36;63.53;102778.53;4917841;29;20063;-65
2022/11/26 08:54:22;;;;;;;32.65;11.75;;;;;;;9.49;63.74;102773.63;4918284;29;20040;-65
2022/11/26 08:56:48;;;;;;;31.92;12.23;;;;;;;9.55;63.71;102774.28;4901522;29;20119;-65
2022/11/26 08:59:16;;;;;;;21.75;10.45;;;;;;;9.64;63.43;102782.91;4918951;29;20091;-65
2022/11/26 09:01:42;;;;;;;23.05;11.20;;;;;;;9.73;63.60;102787.97;4918808;29;20079;-64
2022/11/26 09:04:09;;;;;;;25.52;11.15;;;;;;;9.79;63.31;102785.94;4918706;29;20495;-64
2022/11/26 09:06:36;;;;;;;24.00;11.20;;;;;;;9.86;63.62;102787.47;4918677;29;20063;-65
2022/11/26 09:09:13;;;;;;;29.42;11.27;;;;;;;9.92;63.46;102789.06;4919020;29;20075;-65
2022/11/26 09:11:43;;;;;;;23.27;10.68;;;;;;;9.98;63.39;102796.00;4918694;29;20095;-65
2022/11/26 09:14:10;;;;;;;28.70;10.80;;;;;;;10.03;63.47;102792.22;4918429;29;20091;-66
2022/11/26 09:16:38;;;;;;;24.95;10.18;;;;;;;10.08;63.44;102794.72;4918547;29;20119;-66
2022/11/26 09:19:06;;;;;;;26.35;11.40;;;;;;;10.10;63.49;102796.41;4900244;29;20052;-65
2022/11/26 09:21:34;;;;;;;25.83;10.90;;;;;;;10.13;63.21;102801.66;4918388;29;20086;-64
2022/11/26 09:24:01;;;;;;;24.95;11.07;;;;;;;10.16;63.33;102798.84;4914471;29;20049;-65
2022/11/26 09:26:32;;;;;;;25.40;11.32;;;;;;;10.18;63.39;102796.13;4882969;29;20041;-65
2022/11/26 09:28:59;;;;;;;30.67;11.88;;;;;;;10.22;63.53;102802.28;4899672;29;20052;-63
2022/11/26 09:31:26;;;;;;;29.83;12.05;;;;;;;10.24;63.44;102806.66;4902359;29;20071;-65
2022/11/26 09:33:59;;;;;;;28.00;10.32;;;;;;;10.30;63.50;102802.84;4899426;29;20045;-64
2022/11/26 09:36:26;;;;;;;27.27;10.35;;;;;;;10.32;63.53;102800.97;4887788;29;20044;-65
2022/11/26 09:38:54;;;;;;;25.20;11.55;;;;;;;10.34;63.56;102802.69;4914184;29;20078;-65
2022/11/26 09:41:32;;;;;;;35.05;12.05;;;;;;;10.40;63.44;102809.63;4899838;29;20488;-65
2022/11/26 09:44:17;;;;;;;31.00;10.90;;;;;;;10.45;63.72;102808.53;4899693;29;20109;-65
2022/11/26 09:46:44;;;;;;;25.42;10.80;;;;;;;10.51;63.57;102810.09;4910919;29;20040;-65
2022/11/26 09:49:36;;;;;;;29.55;11.07;;;;;;;10.55;63.66;102813.53;4907604;29;20048;-65
2022/11/26 09:52:06;;;;;;;29.83;10.65;;;;;;;10.59;63.74;102818.72;4882700;29;20048;-65
2022/11/26 09:54:33;;;;;;;24.77;10.30;;;;;;;10.63;63.48;102823.03;4899539;29;20147;-65
2022/11/26 09:57:33;;;;;;;28.67;10.77;;;;;;;10.67;63.68;102831.88;4900450;29;20045;-65
2022/11/26 10:00:00;;;;;;;22.52;9.45;;;;;;;10.74;63.72;102811.88;4900871;29;20058;-66
2022/11/26 10:02:30;;;;;;;26.13;10.65;;;;;;;10.78;63.84;102814.38;4917965;29;20040;-65
2022/11/26 10:04:57;;;;;;;26.92;10.77;;;;;;;10.85;63.59;102814.13;4917957;29;20048;-65
2022/11/26 10:07:42;;;;;;;26.63;9.90;;;;;;;10.88;63.62;102814.00;4918170;29;20044;-65
2022/11/26 10:10:22;;;;;;;24.20;9.90;;;;;;;10.91;63.87;102813.88;4918202;29;20414;-65
2022/11/26 10:13:07;;;;;;;28.15;9.88;;;;;;;10.97;63.85;102817.19;4917720;29;20048;-65
2022/11/26 10:15:57;;;;;;;26.92;10.13;;;;;;;11.02;64.01;102811.59;4917807;29;20044;-64
2022/11/26 10:18:35;;;;;;;33.75;10.70;;;;;;;11.05;63.57;102819.53;4917985;29;20055;-65
2022/11/26 10:21:12;;;;;;;25.08;10.38;;;;;;;11.09;64.08;102815.78;4917685;29;20055;-65
2022/11/26 10:23:44;;;;;;;20.67;9.93;;;;;;;11.14;64.08;102824.53;4904406;29;20052;-65
2022/11/26 10:26:14;;;;;;;23.10;9.63;;;;;;;11.17;64.10;102816.38;4898673;29;20108;-66
2022/11/26 10:28:46;;;;;;;28.95;9.80;;;;;;;11.22;64.26;102810.81;4882142;29;20060;-65
2022/11/26 10:31:23;;;;;;;26.40;10.27;;;;;;;11.25;64.11;102814.22;4904358;29;20048;-66
2022/11/26 10:34:00;;;;;;;26.08;9.57;;;;;;;11.29;64.06;102812.28;4917685;29;20078;-66
2022/11/26 10:36:36;;;;;;;39.03;10.85;;;;;;;11.32;64.02;102813.03;4917103;29;20055;-65
2022/11/26 10:39:03;;;;;;;27.52;8.85;;;;;;;11.37;64.04;102807.44;4918038;29;20079;-66
2022/11/26 10:41:34;;;;;;;25.58;10.50;;;;;;;11.39;64.14;102802.88;4936324;29;20040;-65
2022/11/26 10:44:26;;;;;;;28.13;9.45;;;;;;;11.45;64.21;102802.63;4915208;29;20136;-65
2022/11/26 10:46:53;;;;;;;24.52;9.93;;;;;;;11.50;64.02;102800.59;4884493;29;20139;-66
2022/11/26 10:49:25;;;;;;;28.17;9.18;;;;;;;11.54;64.08;102804.91;4881560;29;20045;-66
2022/11/26 10:52:00;;;;;;;25.40;9.57;;;;;;;11.57;64.36;102806.59;4898233;29;20045;-65
2022/11/26 10:54:37;;;;;;;21.42;8.98;;;;;;;11.59;64.30;102810.06;4898402;29;20044;-66
2022/11/26 10:57:17;;;;;;;25.83;9.23;;;;;;;11.64;64.32;102797.28;4901888;29;20499;-66
2022/11/26 10:59:47;;;;;;;20.88;9.15;;;;;;;11.69;64.25;102806.03;4900719;29;20055;-66
2022/11/26 11:02:39;;;;;;;21.77;8.45;;;;;;;11.72;64.23;102805.91;4917311;29;20579;-66
2022/11/26 11:05:08;;;;;;;23.38;10.30;;;;;;;11.76;64.13;102796.75;4917190;29;20044;-65
2022/11/26 11:07:38;;;;;;;23.35;8.35;;;;;;;11.79;64.37;102793.94;4917114;29;20048;-65
2022/11/26 11:10:08;;;;;;;22.60;8.45;;;;;;;11.82;64.49;102796.50;4900186;29;20051;-66
2022/11/26 11:12:36;;;;;;;24.05;8.32;;;;;;;11.87;64.51;102794.47;4914624;29;20048;-66
2022/11/26 11:15:23;;;;;;;24.77;8.98;;;;;;;11.96;64.21;102799.47;4896840;29;20052;-65
2022/11/26 11:17:56;;;;;;;24.42;9.95;;;;;;;12.05;64.47;102795.47;4886729;29;20091;-65
2022/11/26 11:20:49;;;;;;;21.10;8.45;;;;;;;12.14;64.42;102794.19;4900064;29;20090;-66
2022/11/26 11:23:20;;;;;;;28.52;9.02;;;;;;;12.25;64.37;102791.84;4916868;29;20052;-66
2022/11/26 11:26:27;;;;;;;30.27;9.50;;;;;;;12.38;64.73;102793.00;4901135;29;20103;-65
2022/11/26 11:28:55;;;;;;;19.17;8.93;;;;;;;12.51;64.49;102790.59;4913838;29;20048;-66